Time;durP1;ratioP1;P1;durP2;ratioP2;P2;SDS_P1;SDS_P2;PMS_P1;PMS_P2;Temp;Humidity;BMP_temperature;BMP_pressure;BME280_temperature;BME280_humidity;BME280_pressure;Samples;Min_cycle;Max_cycle;Signal;HPM_P1;HPM_P2
2021/11/09 00:01:22;;;;;;;;;;;7.80;99.90;;;;;;5062851;28;19916;-68
2021/11/09 00:03:52;;;;;;;;;;;7.70;99.90;;;;;;5073091;28;19965;-67
2021/11/09 00:09:06;;;;;;;;;;;7.60;99.90;;;;;;5071683;28;19924;-67
2021/11/09 00:11:32;;;;;;;;;;;7.50;99.90;;;;;;5065120;28;20297;-68
2021/11/09 00:13:58;;;;;;;;;;;7.50;99.90;;;;;;5073763;28;20007;-67
2021/11/09 00:16:23;;;;;;;;;;;7.40;99.90;;;;;;5057140;28;19981;-68
2021/11/09 00:18:49;;;;;;;;;;;7.40;99.90;;;;;;5073733;28;19920;-67
2021/11/09 00:21:15;;;;;;;;;;;7.40;99.90;;;;;;5072427;28;19942;-67
2021/11/09 00:23:41;;;;;;;;;;;7.30;99.90;;;;;;5074872;28;19921;-68
2021/11/09 00:26:07;;;;;;;;;;;7.30;99.90;;;;;;5073774;28;19978;-68
2021/11/09 00:28:33;;;;;;;;;;;7.30;99.90;;;;;;5073025;28;20200;-67
2021/11/09 00:30:58;;;;;;;;;;;7.30;99.90;;;;;;5073102;28;19920;-68
2021/11/09 00:33:24;;;;;;;;;;;7.40;99.90;;;;;;5073599;28;20378;-68
2021/11/09 00:35:50;;;;;;;;;;;7.40;99.90;;;;;;5074766;28;19924;-67
2021/11/09 00:38:15;;;;;;;;;;;7.40;99.90;;;;;;5055156;28;20010;-68
2021/11/09 00:40:42;;;;;;;;;;;7.30;99.90;;;;;;5060767;28;19916;-68
2021/11/09 00:43:08;;;;;;;;;;;7.30;99.90;;;;;;5073090;28;19926;-68
2021/11/09 00:45:34;;;;;;;;;;;7.20;99.90;;;;;;5074553;28;20281;-68
2021/11/09 00:47:59;;;;;;;;;;;7.20;99.90;;;;;;5072994;28;19916;-68
2021/11/09 00:50:25;;;;;;;;;;;7.20;99.90;;;;;;5073115;28;19920;-68
2021/11/09 00:52:51;;;;;;;;;;;7.10;99.90;;;;;;5065322;28;19917;-67
2021/11/09 00:55:17;;;;;;;;;;;7.10;99.90;;;;;;5072539;28;19924;-68
2021/11/09 00:57:44;;;;;;;;;;;7.00;99.90;;;;;;5073288;28;19916;-67
2021/11/09 01:00:10;;;;;;;;;;;7.00;99.90;;;;;;5072989;28;19916;-68
2021/11/09 01:02:36;;;;;;;;;;;6.90;99.90;;;;;;5072885;28;19925;-68
2021/11/09 01:05:01;;;;;;;;;;;6.90;99.90;;;;;;5071471;28;19916;-68
2021/11/09 01:07:27;;;;;;;;;;;6.90;99.90;;;;;;5073105;28;19916;-68
2021/11/09 01:09:52;;;;;;;;;;;6.80;99.90;;;;;;5072687;28;19916;-68
2021/11/09 01:12:18;;;;;;;;;;;6.80;99.90;;;;;;5072098;28;19920;-68
2021/11/09 01:14:43;;;;;;;;;;;6.70;99.90;;;;;;5072512;28;19928;-68
2021/11/09 01:17:09;;;;;;;;;;;6.70;99.90;;;;;;5066585;28;19926;-67
2021/11/09 01:19:35;;;;;;;;;;;6.70;99.90;;;;;;5072231;28;19999;-68
2021/11/09 01:22:02;;;;;;;;;;;6.60;99.90;;;;;;5072470;28;19916;-68
2021/11/09 01:24:27;;;;;;;;;;;6.60;99.90;;;;;;5070516;28;19920;-67
2021/11/09 01:26:53;;;;;;;;;;;6.60;99.90;;;;;;5053694;28;19982;-67
2021/11/09 01:29:18;;;;;;;;;;;6.50;99.90;;;;;;5059197;28;19917;-67
2021/11/09 01:31:44;;;;;;;;;;;6.50;99.90;;;;;;5068818;28;19916;-68
2021/11/09 01:34:10;;;;;;;;;;;6.50;99.90;;;;;;5071807;28;19927;-68
2021/11/09 01:36:36;;;;;;;;;;;6.40;99.90;;;;;;5072266;28;19935;-68
2021/11/09 01:39:02;;;;;;;;;;;6.30;99.90;;;;;;5055450;28;19973;-68
2021/11/09 01:41:28;;;;;;;;;;;6.30;99.90;;;;;;5072453;28;20239;-68
2021/11/09 01:44:16;;;;;;;;;;;6.30;99.90;;;;;;5071406;28;19965;-68
2021/11/09 01:46:41;;;;;;;;;;;6.30;99.90;;;;;;5071512;28;19920;-67
2021/11/09 01:49:07;;;;;;;;;;;6.30;99.90;;;;;;5084988;22;19927;-67
2021/11/09 01:51:33;;;;;;;;;;;6.30;99.90;;;;;;5066270;28;19920;-67
2021/11/09 01:54:00;;;;;;;;;;;6.30;99.90;;;;;;5072472;28;19931;-67
2021/11/09 01:56:28;;;;;;;;;;;6.20;99.90;;;;;;5072425;28;19920;-67
2021/11/09 01:58:55;;;;;;;;;;;6.20;99.90;;;;;;5071202;28;20373;-67
2021/11/09 02:01:21;;;;;;;;;;;6.20;99.90;;;;;;5073520;28;20050;-67
2021/11/09 02:03:48;;;;;;;;;;;6.10;99.90;;;;;;5054961;28;20006;-67
2021/11/09 02:06:14;;;;;;;;;;;6.10;99.90;;;;;;5067400;28;19923;-67
2021/11/09 02:08:40;;;;;;;;;;;6.10;99.90;;;;;;5065983;28;20631;-67
2021/11/09 02:11:06;;;;;;;;;;;6.10;99.90;;;;;;5072583;28;19927;-67
2021/11/09 02:13:31;;;;;;;;;;;6.10;99.90;;;;;;5072465;28;19916;-67
2021/11/09 02:15:57;;;;;;;;;;;6.10;99.90;;;;;;5071920;28;19931;-67
2021/11/09 02:18:24;;;;;;;;;;;6.10;99.90;;;;;;5072379;28;19916;-67
2021/11/09 02:20:56;;;;;;;;;;;6.00;99.90;;;;;;5072332;28;20404;-67
2021/11/09 02:23:22;;;;;;;;;;;6.00;99.90;;;;;;5071920;28;20416;-67
2021/11/09 02:25:47;;;;;;;;;;;6.00;99.90;;;;;;5072336;28;20631;-67
2021/11/09 02:28:13;;;;;;;;;;;6.00;99.90;;;;;;5054438;28;19916;-67
2021/11/09 02:30:39;;;;;;;;;;;6.00;99.90;;;;;;5052478;28;19917;-67
2021/11/09 02:33:04;;;;;;;;;;;5.90;99.90;;;;;;5065858;28;19916;-67
2021/11/09 02:35:30;;;;;;;;;;;5.90;99.90;;;;;;5072018;28;19973;-67
2021/11/09 02:37:57;;;;;;;;;;;5.90;99.90;;;;;;5071997;28;19916;-67
2021/11/09 02:40:22;;;;;;;;;;;5.90;99.90;;;;;;5071985;28;19917;-67
2021/11/09 02:42:49;;;;;;;;;;;5.80;99.90;;;;;;5071780;28;19923;-67
2021/11/09 02:45:23;;;;;;;;;;;5.80;99.90;;;;;;5070964;28;20090;-67
2021/11/09 02:47:55;;;;;;;;;;;5.80;99.90;;;;;;5054970;28;19920;-66
2021/11/09 02:50:24;;;;;;;;;;;5.80;99.90;;;;;;5071204;28;19969;-67
2021/11/09 02:55:42;;;;;;;;;;;5.70;99.90;;;;;;5052414;28;20309;-67
2021/11/09 02:58:55;;;;;;;;;;;5.70;99.90;;;;;;5072812;28;19916;-67
2021/11/09 03:01:07;;;;;;;;;;;5.70;99.90;;;;;;5065146;28;19922;-67
2021/11/09 03:03:41;;;;;;;;;;;5.70;99.90;;;;;;5071550;28;19916;-67
2021/11/09 03:06:23;;;;;;;;;;;5.60;99.90;;;;;;5071216;28;19916;-67
2021/11/09 03:08:56;;;;;;;;;;;5.60;99.90;;;;;;5066393;28;20030;-67
2021/11/09 03:11:22;;;;;;;;;;;5.60;99.90;;;;;;5070907;28;19916;-67
2021/11/09 03:13:51;;;;;;;;;;;5.60;99.90;;;;;;5070492;28;20384;-67
2021/11/09 03:16:17;;;;;;;;;;;5.60;99.90;;;;;;5069949;28;20431;-67
2021/11/09 03:19:37;;;;;;;;;;;5.50;99.90;;;;;;5070390;28;19920;-67
2021/11/09 03:44:12;;;;;;;;;;;5.40;99.90;;;;;;5072623;28;20015;-67
2021/11/09 03:46:26;;;;;;;;;;;5.40;99.90;;;;;;5060744;28;19947;-67
2021/11/09 03:48:52;;;;;;;;;;;5.40;99.90;;;;;;5073658;28;19977;-67
2021/11/09 03:51:17;;;;;;;;;;;5.40;99.90;;;;;;5095607;28;19916;-67
2021/11/09 03:53:44;;;;;;;;;;;5.30;99.90;;;;;;5077235;28;19923;-67
2021/11/09 03:56:17;;;;;;;;;;;5.30;99.90;;;;;;5094580;28;19943;-67
2021/11/09 03:58:46;;;;;;;;;;;5.20;99.90;;;;;;5081077;28;19957;-67
2021/11/09 04:01:16;;;;;;;;;;;5.30;99.90;;;;;;5062741;28;19920;-67
2021/11/09 04:03:57;;;;;;;;;;;5.30;99.90;;;;;;5074647;28;19923;-67
2021/11/09 04:06:30;;;;;;;;;;;5.20;99.90;;;;;;5092712;28;20273;-67
2021/11/09 04:11:28;;;;;;;;;;;5.20;99.90;;;;;;5095434;28;19969;-67
2021/11/09 04:14:01;;;;;;;;;;;5.20;99.90;;;;;;5084127;28;20010;-67
2021/11/09 04:18:59;;;;;;;;;;;5.10;99.90;;;;;;5094467;28;20006;-67
2021/11/09 04:39:42;;;;;;;;;;;5.00;99.90;;;;;;5079779;28;19916;-67
2021/11/09 05:01:10;;;;;;;;;;;5.00;99.90;;;;;;5070474;28;19923;-67
2021/11/09 05:11:10;;;;;;;;;;;5.00;99.90;;;;;;5085232;28;20397;-67
2021/11/09 05:13:35;;;;;;;;;;;5.00;99.90;;;;;;5076898;28;19928;-67
2021/11/09 05:16:01;;;;;;;;;;;5.00;99.90;;;;;;5073930;28;20495;-67
2021/11/09 05:18:26;;;;;;;;;;;5.00;99.90;;;;;;5078358;28;20368;-67
2021/11/09 05:20:53;;;;;;;;;;;5.00;99.90;;;;;;5066741;28;19926;-67
2021/11/09 05:23:19;;;;;;;;;;;5.00;99.90;;;;;;5081187;28;20305;-67
2021/11/09 05:25:44;;;;;;;;;;;5.00;99.90;;;;;;5073719;28;19923;-67
2021/11/09 05:28:11;;;;;;;;;;;5.00;99.90;;;;;;5079973;28;19916;-67
2021/11/09 05:30:39;;;;;;;;;;;5.00;99.90;;;;;;5079582;28;19916;-67
2021/11/09 05:33:05;;;;;;;;;;;5.10;99.90;;;;;;5076283;28;19916;-67
2021/11/09 05:35:30;;;;;;;;;;;5.00;99.90;;;;;;5078162;28;20494;-67
2021/11/09 05:37:57;;;;;;;;;;;5.00;99.90;;;;;;5076222;28;19916;-67
2021/11/09 05:40:29;;;;;;;;;;;5.10;99.90;;;;;;5083351;28;20293;-67
2021/11/09 05:42:55;;;;;;;;;;;5.00;99.90;;;;;;5076323;28;20297;-67
2021/11/09 05:45:21;;;;;;;;;;;5.00;99.90;;;;;;5066295;28;20293;-66
2021/11/09 05:47:46;;;;;;;;;;;5.00;99.90;;;;;;5073127;28;19920;-66
2021/11/09 05:50:12;;;;;;;;;;;5.00;99.90;;;;;;5080348;28;19920;-66
2021/11/09 05:52:37;;;;;;;;;;;5.00;99.90;;;;;;5075452;28;19916;-66
2021/11/09 05:55:04;;;;;;;;;;;5.00;99.90;;;;;;5073083;28;19927;-66
2021/11/09 05:57:29;;;;;;;;;;;5.00;99.90;;;;;;5066871;28;19916;-66
2021/11/09 05:59:55;;;;;;;;;;;4.90;99.90;;;;;;5075995;28;19927;-66
2021/11/09 06:02:21;;;;;;;;;;;5.00;99.90;;;;;;5075723;28;19916;-66
2021/11/09 06:04:50;;;;;;;;;;;4.90;99.90;;;;;;5076345;28;20354;-66
2021/11/09 06:07:16;;;;;;;;;;;4.90;99.90;;;;;;5075088;28;19923;-66
2021/11/09 06:09:42;;;;;;;;;;;4.90;99.90;;;;;;5094013;28;20357;-66
2021/11/09 06:12:07;;;;;;;;;;;4.90;99.90;;;;;;5075917;28;19916;-66
2021/11/09 06:14:33;;;;;;;;;;;4.90;99.90;;;;;;5075695;28;19927;-66
2021/11/09 06:16:58;;;;;;;;;;;4.90;99.90;;;;;;5092952;28;19920;-66
2021/11/09 06:19:25;;;;;;;;;;;4.90;99.90;;;;;;5078636;28;19915;-66
2021/11/09 06:21:51;;;;;;;;;;;4.90;99.90;;;;;;5075949;28;20325;-66
2021/11/09 06:24:16;;;;;;;;;;;4.90;99.90;;;;;;5080256;28;19916;-66
2021/11/09 06:26:42;;;;;;;;;;;4.90;99.90;;;;;;5060079;28;20056;-66
2021/11/09 06:29:07;;;;;;;;;;;4.90;99.90;;;;;;5075738;28;19968;-66
2021/11/09 06:31:33;;;;;;;;;;;4.80;99.90;;;;;;5067597;28;19920;-66
2021/11/09 06:33:58;;;;;;;;;;;4.80;99.90;;;;;;5083117;28;19973;-66
2021/11/09 06:36:24;;;;;;;;;;;4.80;99.90;;;;;;5075445;28;19916;-66
2021/11/09 06:38:49;;;;;;;;;;;4.80;99.90;;;;;;5058685;28;19916;-66
2021/11/09 06:41:15;;;;;;;;;;;4.80;99.90;;;;;;5092280;28;20412;-66
2021/11/09 06:43:40;;;;;;;;;;;4.90;99.90;;;;;;5092067;28;19920;-66
2021/11/09 06:46:06;;;;;;;;;;;4.80;99.90;;;;;;5092440;28;20023;-66
2021/11/09 06:48:31;;;;;;;;;;;4.80;99.90;;;;;;5091473;28;19924;-66
2021/11/09 06:50:57;;;;;;;;;;;4.80;99.90;;;;;;5091233;28;20330;-66
2021/11/09 06:53:22;;;;;;;;;;;4.80;99.90;;;;;;5071131;28;20003;-66
2021/11/09 06:55:48;;;;;;;;;;;4.90;99.90;;;;;;5074230;28;19954;-66
2021/11/09 06:58:14;;;;;;;;;;;4.90;99.90;;;;;;5075156;28;19922;-66
2021/11/09 07:00:40;;;;;;;;;;;4.90;99.90;;;;;;5074728;28;19923;-66
2021/11/09 07:03:05;;;;;;;;;;;4.90;99.90;;;;;;5041094;28;19971;-66
2021/11/09 07:05:31;;;;;;;;;;;4.90;99.90;;;;;;5054965;28;19939;-66
2021/11/09 07:07:56;;;;;;;;;;;4.90;99.90;;;;;;5074778;28;19926;-66
2021/11/09 07:10:22;;;;;;;;;;;5.00;99.90;;;;;;5065689;28;20358;-66
2021/11/09 07:12:47;;;;;;;;;;;5.00;99.90;;;;;;5058552;28;20406;-66
2021/11/09 07:15:14;;;;;;;;;;;5.00;99.90;;;;;;5056749;28;21109;-66
2021/11/09 07:17:39;;;;;;;;;;;5.00;99.90;;;;;;5075088;28;20289;-66
2021/11/09 07:20:09;;;;;;;;;;;5.00;99.90;;;;;;5074822;28;19927;-66
2021/11/09 07:22:35;;;;;;;;;;;5.10;99.90;;;;;;5057933;28;20000;-66
2021/11/09 07:25:01;;;;;;;;;;;5.10;99.90;;;;;;5074833;28;19955;-66
2021/11/09 07:27:27;;;;;;;;;;;5.20;99.90;;;;;;5073133;28;19923;-66
2021/11/09 07:29:52;;;;;;;;;;;5.20;99.90;;;;;;5069181;28;20346;-66
2021/11/09 07:32:21;;;;;;;;;;;5.30;99.90;;;;;;5074816;28;19938;-66
2021/11/09 07:34:47;;;;;;;;;;;5.30;99.90;;;;;;5063340;28;19947;-66
2021/11/09 07:37:12;;;;;;;;;;;5.30;99.90;;;;;;5074615;28;20276;-66
2021/11/09 07:39:38;;;;;;;;;;;5.40;99.90;;;;;;5057947;28;19923;-66
2021/11/09 07:42:04;;;;;;;;;;;5.50;99.90;;;;;;5070405;28;19970;-66
2021/11/09 07:44:30;;;;;;;;;;;5.50;99.90;;;;;;5070974;28;19927;-66
2021/11/09 07:46:55;;;;;;;;;;;5.60;99.90;;;;;;5071009;28;19920;-66
2021/11/09 07:49:21;;;;;;;;;;;5.70;99.90;;;;;;5070813;28;19927;-66
2021/11/09 07:51:46;;;;;;;;;;;5.80;99.90;;;;;;5070918;28;19920;-66
2021/11/09 07:54:12;;;;;;;;;;;5.80;99.90;;;;;;5056740;28;19924;-66
2021/11/09 07:56:40;;;;;;;;;;;5.90;99.90;;;;;;5074267;28;19916;-66
2021/11/09 08:01:43;;;;;;;;;;;6.10;99.90;;;;;;5054812;28;20023;-66
2021/11/09 08:04:12;;;;;;;;;;;6.10;99.90;;;;;;5073422;28;19920;-66
2021/11/09 08:06:52;;;;;;;;;;;6.20;99.90;;;;;;5056706;28;20273;-66
2021/11/09 08:09:28;;;;;;;;;;;6.30;99.90;;;;;;5063220;28;19923;-66
2021/11/09 08:11:55;;;;;;;;;;;6.40;99.90;;;;;;5074041;28;19919;-66
2021/11/09 08:14:21;;;;;;;;;;;6.40;99.90;;;;;;5075496;28;19920;-66
2021/11/09 08:16:47;;;;;;;;;;;6.50;99.90;;;;;;5077869;28;19919;-66
2021/11/09 08:19:13;;;;;;;;;;;6.50;99.90;;;;;;5077847;28;19919;-66
2021/11/09 08:21:39;;;;;;;;;;;6.70;99.90;;;;;;5077692;28;19916;-66
2021/11/09 08:24:07;;;;;;;;;;;6.70;99.90;;;;;;5075172;28;19916;-66
2021/11/09 08:26:33;;;;;;;;;;;6.70;99.90;;;;;;5076329;28;20003;-66
2021/11/09 08:29:05;;;;;;;;;;;6.80;99.90;;;;;;5077675;28;19922;-67
2021/11/09 08:31:35;;;;;;;;;;;6.90;99.90;;;;;;5077247;28;19916;-66
2021/11/09 08:34:02;;;;;;;;;;;6.90;99.90;;;;;;5077088;28;20364;-66
2021/11/09 08:36:31;;;;;;;;;;;7.00;99.90;;;;;;5077465;28;19916;-67
2021/11/09 08:38:57;;;;;;;;;;;7.00;99.90;;;;;;5077650;28;20346;-67
2021/11/09 08:41:26;;;;;;;;;;;7.10;99.90;;;;;;5077527;28;19923;-67
2021/11/09 08:44:03;;;;;;;;;;;7.20;99.90;;;;;;5077670;28;19923;-67
2021/11/09 08:46:37;;;;;;;;;;;7.20;99.90;;;;;;5083356;28;19977;-66
2021/11/09 08:49:04;;;;;;;;;;;7.30;99.90;;;;;;5078374;28;20001;-67
2021/11/09 08:51:29;;;;;;;;;;;7.40;99.90;;;;;;5076739;28;19916;-67
2021/11/09 08:54:00;;;;;;;;;;;7.40;99.90;;;;;;5077353;28;20002;-67
2021/11/09 08:56:32;;;;;;;;;;;7.50;99.90;;;;;;5074899;28;19962;-67
2021/11/09 09:04:12;;;;;;;;;;;7.60;99.90;;;;;;5068104;28;19939;-67
2021/11/09 09:04:27;;;;;;;;;;;7.80;99.90;;;;;;5077054;28;19919;-66
2021/11/09 09:06:55;;;;;;;;;;;7.70;99.90;;;;;;5076812;28;20085;-67
2021/11/09 09:09:21;;;;;;;;;;;7.80;99.90;;;;;;5072686;28;19920;-67
2021/11/09 09:11:47;;;;;;;;;;;7.80;99.90;;;;;;5077629;28;19965;-67
2021/11/09 09:14:14;;;;;;;;;;;7.90;99.90;;;;;;5065304;28;19916;-67
2021/11/09 09:16:45;;;;;;;;;;;8.00;99.90;;;;;;5073855;28;19955;-67
2021/11/09 09:19:10;;;;;;;;;;;8.00;99.90;;;;;;5072989;28;19939;-67
2021/11/09 09:21:41;;;;;;;;;;;8.00;99.90;;;;;;5071207;28;19920;-67
2021/11/09 09:24:27;;;;;;;;;;;8.10;99.90;;;;;;5076591;28;19922;-67
2021/11/09 09:29:42;;;;;;;;;;;8.30;99.90;;;;;;5075941;28;19916;-67
2021/11/09 09:56:54;;;;;;;;;;;9.00;99.90;;;;;;5075466;28;20034;-67
2021/11/09 09:59:20;;;;;;;;;;;9.00;99.90;;;;;;5066775;28;20293;-67
2021/11/09 10:02:02;;;;;;;;;;;9.10;99.90;;;;;;5054329;28;20265;-67
2021/11/09 10:04:29;;;;;;;;;;;9.20;99.90;;;;;;5075052;28;20238;-67
2021/11/09 10:06:55;;;;;;;;;;;9.20;99.90;;;;;;5075879;28;20323;-66
2021/11/09 10:09:31;;;;;;;;;;;9.30;99.90;;;;;;5074835;28;19916;-67
2021/11/09 10:12:12;;;;;;;;;;;9.40;99.90;;;;;;5091050;28;19923;-67
2021/11/09 10:14:37;;;;;;;;;;;9.40;99.90;;;;;;5074300;28;20288;-67
2021/11/09 10:17:27;;;;;;;;;;;9.40;99.90;;;;;;5075294;28;19916;-67
2021/11/09 10:19:56;;;;;;;;;;;9.30;99.90;;;;;;5074054;28;19951;-67
2021/11/09 10:22:24;;;;;;;;;;;9.40;99.90;;;;;;5075657;28;19923;-67
2021/11/09 10:24:50;;;;;;;;;;;9.50;99.90;;;;;;5073174;28;19916;-67
2021/11/09 10:27:17;;;;;;;;;;;9.60;99.90;;;;;;5072463;28;20014;-67
2021/11/09 10:29:43;;;;;;;;;;;9.70;99.90;;;;;;5074401;28;20378;-67
2021/11/09 10:32:13;;;;;;;;;;;9.90;99.90;;;;;;5074593;28;19919;-67
2021/11/09 10:34:38;;;;;;;;;;;10.00;99.90;;;;;;5078685;28;20281;-66
2021/11/09 10:37:22;;;;;;;;;;;10.10;99.90;;;;;;5090841;28;19916;-66
2021/11/09 10:39:49;;;;;;;;;;;10.20;99.90;;;;;;5090996;28;19916;-66
2021/11/09 10:42:17;;;;;;;;;;;10.30;99.90;;;;;;5091290;28;20061;-67
2021/11/09 10:44:48;;;;;;;;;;;10.30;99.90;;;;;;5080938;28;19916;-66
2021/11/09 10:47:18;;;;;;;;;;;10.40;99.90;;;;;;5091339;28;19916;-66
2021/11/09 10:49:57;;;;;;;;;;;10.40;99.90;;;;;;5089247;28;19923;-67
2021/11/09 10:52:31;;;;;;;;;;;10.40;99.90;;;;;;5091261;28;19927;-67
2021/11/09 10:55:25;;;;;;;;;;;10.50;99.90;;;;;;5083810;28;20282;-67
2021/11/09 11:00:56;;;;;;;;;;;10.60;99.90;;;;;;5074182;28;19958;-66
2021/11/09 11:05:49;;;;;;;;;;;10.70;99.90;;;;;;5070850;28;19963;-66
2021/11/09 11:08:15;;;;;;;;;;;10.70;99.90;;;;;;5054205;28;19971;-66
2021/11/09 11:10:40;;;;;;;;;;;10.70;99.90;;;;;;5072067;28;19924;-66
2021/11/09 11:13:20;;;;;;;;;;;10.70;99.90;;;;;;5054205;28;20029;-66
2021/11/09 11:16:05;;;;;;;;;;;10.70;99.90;;;;;;5065611;28;20353;-66
2021/11/09 11:18:32;;;;;;;;;;;10.80;99.90;;;;;;5061375;28;19999;-66
2021/11/09 11:20:58;;;;;;;;;;;10.80;99.90;;;;;;5058162;28;19923;-66
2021/11/09 11:23:24;;;;;;;;;;;10.80;99.90;;;;;;5044917;28;20338;-66
2021/11/09 11:25:50;;;;;;;;;;;10.90;99.90;;;;;;5073410;28;19938;-66
2021/11/09 11:28:16;;;;;;;;;;;10.90;99.90;;;;;;5072927;28;20449;-66
2021/11/09 11:30:41;;;;;;;;;;;10.90;99.90;;;;;;5073306;28;20336;-66
2021/11/09 11:33:07;;;;;;;;;;;10.90;99.90;;;;;;5070093;28;19924;-66
2021/11/09 11:35:32;;;;;;;;;;;10.90;99.90;;;;;;5090435;28;19977;-67
2021/11/09 11:37:58;;;;;;;;;;;11.00;99.90;;;;;;5071495;28;19916;-67
2021/11/09 11:40:24;;;;;;;;;;;11.00;99.90;;;;;;5074092;28;19920;-67
2021/11/09 11:42:49;;;;;;;;;;;11.00;99.90;;;;;;5056655;28;19951;-67
2021/11/09 11:45:14;;;;;;;;;;;11.00;99.90;;;;;;5076337;28;19920;-66
2021/11/09 11:47:40;;;;;;;;;;;11.00;99.90;;;;;;5082178;28;19923;-66
2021/11/09 11:50:11;;;;;;;;;;;11.00;99.90;;;;;;5073215;28;19931;-66
2021/11/09 11:52:40;;;;;;;;;;;11.00;99.90;;;;;;5053886;28;19974;-66
2021/11/09 11:55:07;;;;;;;;;;;11.00;99.90;;;;;;5053440;28;19971;-66
2021/11/09 11:57:41;;;;;;;;;;;11.00;99.90;;;;;;5048727;28;20294;-66
2021/11/09 12:00:28;;;;;;;;;;;11.10;99.90;;;;;;5053612;28;19927;-66
2021/11/09 12:02:54;;;;;;;;;;;11.10;99.90;;;;;;5056611;28;19995;-66
2021/11/09 12:05:36;;;;;;;;;;;11.20;99.90;;;;;;5067178;28;19958;-66
2021/11/09 12:08:03;;;;;;;;;;;11.20;99.90;;;;;;5070401;28;19975;-67
2021/11/09 12:10:37;;;;;;;;;;;11.30;99.90;;;;;;5049244;28;19917;-66
2021/11/09 12:13:04;;;;;;;;;;;11.30;99.90;;;;;;5056971;28;20358;-67
2021/11/09 12:15:49;;;;;;;;;;;11.40;99.90;;;;;;5069939;28;19921;-66
2021/11/09 12:18:39;;;;;;;;;;;11.30;99.90;;;;;;5048006;28;19917;-66
2021/11/09 12:21:06;;;;;;;;;;;11.40;99.90;;;;;;5057760;28;20421;-66
2021/11/09 12:23:33;;;;;;;;;;;11.40;99.90;;;;;;5052559;28;19974;-66
2021/11/09 12:25:58;;;;;;;;;;;11.40;99.90;;;;;;5042500;28;20388;-67
2021/11/09 12:28:30;;;;;;;;;;;11.40;99.90;;;;;;5047571;28;20015;-66
2021/11/09 12:30:55;;;;;;;;;;;11.40;99.90;;;;;;5047944;28;19939;-66
2021/11/09 12:33:23;;;;;;;;;;;11.50;99.90;;;;;;5052035;28;19924;-66
2021/11/09 12:35:57;;;;;;;;;;;11.40;99.90;;;;;;5045550;28;19928;-66
2021/11/09 12:38:40;;;;;;;;;;;11.40;99.90;;;;;;5045541;28;20386;-66
2021/11/09 12:41:09;;;;;;;;;;;11.50;99.90;;;;;;5033566;28;19931;-66
2021/11/09 12:43:50;;;;;;;;;;;11.40;99.90;;;;;;5033766;28;20294;-66
2021/11/09 12:46:38;;;;;;;;;;;11.50;99.90;;;;;;5033502;28;19920;-67
2021/11/09 12:49:06;;;;;;;;;;;11.50;99.90;;;;;;5041164;28;19966;-66
2021/11/09 12:51:35;;;;;;;;;;;11.50;99.90;;;;;;5054774;28;19927;-66
2021/11/09 12:54:05;;;;;;;;;;;11.50;99.90;;;;;;5053188;28;19923;-66
2021/11/09 12:56:36;;;;;;;;;;;11.50;99.90;;;;;;5069421;28;20373;-66
2021/11/09 12:59:07;;;;;;;;;;;11.50;99.90;;;;;;5073174;28;20535;-66
2021/11/09 13:02:26;;;;;;;;;;;11.50;99.90;;;;;;5072732;28;19920;-66
2021/11/09 13:04:29;;;;;;;;;;;11.50;99.90;;;;;;5064535;28;19943;-66
2021/11/09 13:07:29;;;;;;;;;;;11.50;99.90;;;;;;5073263;28;20314;-66
2021/11/09 13:09:58;;;;;;;;;;;11.50;99.90;;;;;;5072883;28;19920;-66
2021/11/09 13:12:25;;;;;;;;;;;11.50;99.90;;;;;;5072894;28;19916;-66
2021/11/09 13:14:55;;;;;;;;;;;11.40;99.90;;;;;;5071490;28;19928;-66
2021/11/09 13:17:20;;;;;;;;;;;11.50;99.90;;;;;;5064877;28;20297;-66
2021/11/09 13:19:48;;;;;;;;;;;11.40;99.90;;;;;;5070938;28;19921;-67
2021/11/09 13:22:19;;;;;;;;;;;11.50;99.90;;;;;;5072089;28;19916;-66
2021/11/09 13:24:55;;;;;;;;;;;11.40;99.90;;;;;;5072337;28;19927;-66
2021/11/09 13:27:32;;;;;;;;;;;11.40;99.90;;;;;;5072727;28;19946;-66
2021/11/09 13:30:06;;;;;;;;;;;11.40;99.90;;;;;;5071648;28;19971;-66
2021/11/09 13:32:31;;;;;;;;;;;11.40;99.90;;;;;;5055148;28;19920;-66
2021/11/09 13:34:57;;;;;;;;;;;11.50;99.90;;;;;;5063195;28;20266;-66
2021/11/09 13:37:22;;;;;;;;;;;11.40;99.90;;;;;;5061169;28;19920;-67
2021/11/09 13:39:57;;;;;;;;;;;11.50;99.90;;;;;;5055035;28;20390;-66
2021/11/09 13:42:23;;;;;;;;;;;11.40;99.90;;;;;;5065335;28;20290;-66
2021/11/09 13:44:48;;;;;;;;;;;11.40;99.90;;;;;;5071558;28;19920;-66
2021/11/09 13:47:14;;;;;;;;;;;11.50;99.90;;;;;;5072200;28;20002;-66
2021/11/09 13:49:40;;;;;;;;;;;11.50;99.90;;;;;;5071495;28;19928;-66
2021/11/09 13:52:05;;;;;;;;;;;11.40;99.90;;;;;;5067516;28;19967;-66
2021/11/09 13:54:34;;;;;;;;;;;11.50;99.90;;;;;;5068856;28;19928;-66
2021/11/09 13:57:00;;;;;;;;;;;11.40;99.90;;;;;;5070802;28;19920;-66
2021/11/09 13:59:27;;;;;;;;;;;11.40;99.90;;;;;;5071696;28;20474;-66
2021/11/09 14:04:46;;;;;;;;;;;11.40;99.90;;;;;;5077903;22;20405;-68
2021/11/09 14:10:04;;;;;;;;;;;11.40;99.90;;;;;;5050114;28;20401;-68
2021/11/09 14:12:57;;;;;;;;;;;11.40;99.90;;;;;;5050149;28;19924;-68
2021/11/09 14:18:08;;;;;;;;;;;11.30;99.90;;;;;;5049249;28;19921;-68
2021/11/09 14:20:34;;;;;;;;;;;11.30;99.90;;;;;;5050495;28;20386;-69
2021/11/09 14:23:01;;;;;;;;;;;11.30;99.90;;;;;;5048414;28;19920;-69
2021/11/09 14:25:27;;;;;;;;;;;11.30;99.90;;;;;;5050255;28;19923;-69
2021/11/09 14:27:53;;;;;;;;;;;11.30;99.90;;;;;;5044484;28;20011;-68
2021/11/09 14:30:20;;;;;;;;;;;11.30;99.90;;;;;;5050423;28;20015;-68
2021/11/09 14:32:46;;;;;;;;;;;11.30;99.90;;;;;;5047644;28;19917;-68
2021/11/09 14:37:57;;;;;;;;;;;11.20;99.90;;;;;;5065427;28;19920;-69
2021/11/09 14:40:44;;;;;;;;;;;11.20;99.90;;;;;;5050189;28;19959;-68
2021/11/09 14:43:13;;;;;;;;;;;11.20;99.90;;;;;;5050556;28;20374;-68
2021/11/09 14:48:10;;;;;;;;;;;11.10;99.90;;;;;;5050302;28;19917;-69
2021/11/09 14:50:42;;;;;;;;;;;11.10;99.90;;;;;;5049986;28;19916;-69
2021/11/09 14:53:15;;;;;;;;;;;11.10;99.90;;;;;;5042138;28;19921;-68
2021/11/09 14:55:47;;;;;;;;;;;11.00;99.90;;;;;;5050197;28;19964;-69
2021/11/09 14:58:33;;;;;;;;;;;11.10;99.90;;;;;;5051052;28;20377;-68
2021/11/09 15:01:06;;;;;;;;;;;11.00;99.90;;;;;;5017570;28;19917;-68
2021/11/09 15:03:50;;;;;;;;;;;11.00;99.90;;;;;;5050233;28;19924;-69
2021/11/09 15:06:23;;;;;;;;;;;10.90;99.90;;;;;;5050313;28;19928;-69
2021/11/09 15:08:56;;;;;;;;;;;10.90;99.90;;;;;;5050034;28;19931;-68
2021/11/09 15:11:29;;;;;;;;;;;10.90;99.90;;;;;;5049821;28;19970;-68
2021/11/09 15:30:21;;;;;;;;;;;10.70;99.90;;;;;;5049848;28;20440;-68
2021/11/09 15:32:48;;;;;;;;;;;10.70;99.90;;;;;;5049708;28;19921;-68
2021/11/09 15:35:19;;;;;;;;;;;10.70;99.90;;;;;;5030122;28;20325;-69
2021/11/09 15:37:49;;;;;;;;;;;10.60;99.90;;;;;;5045679;28;20417;-68
2021/11/09 15:40:16;;;;;;;;;;;10.60;99.90;;;;;;5050454;28;19917;-68
2021/11/09 15:42:42;;;;;;;;;;;10.60;99.90;;;;;;5047375;28;19917;-68
2021/11/09 15:45:09;;;;;;;;;;;10.60;99.90;;;;;;5048575;28;20409;-68
2021/11/09 15:47:35;;;;;;;;;;;10.60;99.90;;;;;;5048364;28;19966;-69
2021/11/09 15:50:00;;;;;;;;;;;10.60;99.90;;;;;;5039744;28;19916;-69
2021/11/09 15:52:25;;;;;;;;;;;10.50;99.90;;;;;;5029703;28;19971;-68
2021/11/09 15:54:51;;;;;;;;;;;10.50;99.90;;;;;;5027662;28;19923;-68
2021/11/09 15:57:17;;;;;;;;;;;10.50;99.90;;;;;;5050475;28;19925;-68
2021/11/09 15:59:43;;;;;;;;;;;10.50;99.90;;;;;;5047083;28;19920;-68
2021/11/09 16:02:09;;;;;;;;;;;10.50;99.90;;;;;;5048895;28;19974;-69
2021/11/09 16:04:43;;;;;;;;;;;10.50;99.90;;;;;;5054966;28;19923;-69
2021/11/09 16:07:09;;;;;;;;;;;10.50;99.90;;;;;;5042425;28;19947;-68
2021/11/09 16:09:36;;;;;;;;;;;10.40;99.90;;;;;;5047125;28;20571;-69
2021/11/09 16:12:01;;;;;;;;;;;10.40;99.90;;;;;;5048448;28;19921;-69
2021/11/09 16:14:27;;;;;;;;;;;10.40;99.90;;;;;;5048573;28;19938;-68
2021/11/09 16:16:53;;;;;;;;;;;10.40;99.90;;;;;;5045887;28;20032;-69
2021/11/09 16:19:19;;;;;;;;;;;10.40;99.90;;;;;;5043405;28;19916;-69
2021/11/09 16:21:44;;;;;;;;;;;10.40;99.90;;;;;;5049091;28;19927;-69
2021/11/09 16:24:12;;;;;;;;;;;10.40;99.90;;;;;;5041085;28;19917;-69
2021/11/09 16:26:39;;;;;;;;;;;10.30;99.90;;;;;;5047042;28;19921;-69
2021/11/09 16:29:04;;;;;;;;;;;10.30;99.90;;;;;;5048146;28;20003;-68
2021/11/09 16:31:30;;;;;;;;;;;10.30;99.90;;;;;;5048093;28;19999;-69
2021/11/09 16:33:57;;;;;;;;;;;10.20;99.90;;;;;;5048166;28;19928;-69
2021/11/09 16:36:25;;;;;;;;;;;10.20;99.90;;;;;;5070972;28;19916;-69
2021/11/09 16:38:54;;;;;;;;;;;10.20;99.90;;;;;;5056962;28;20289;-68
2021/11/09 16:41:22;;;;;;;;;;;10.10;99.90;;;;;;5050071;28;19927;-68
2021/11/09 16:43:57;;;;;;;;;;;10.10;99.90;;;;;;5055814;28;20413;-68
2021/11/09 16:51:47;;;;;;;;;;;10.10;99.90;;;;;;5046310;28;19920;-68
2021/11/09 16:54:28;;;;;;;;;;;10.10;99.90;;;;;;5051933;28;19927;-68
2021/11/09 16:57:05;;;;;;;;;;;10.10;99.90;;;;;;5050408;28;20015;-68
2021/11/09 18:05:46;;;;;;;;;;;10.00;99.90;;;;;;5048965;28;20019;-66
2021/11/09 18:13:00;;;;;;;;;;;10.00;99.90;;;;;;5046842;28;19966;-66
2021/11/09 18:20:24;;;;;;;;;;;10.00;99.90;;;;;;5045212;28;19916;-66